createdAt,value
2022-11-16T00:00:26.407Z,99218.72
2022-11-16T00:02:54.805Z,99220.84
2022-11-16T00:05:27.943Z,99211.13
2022-11-16T00:07:57.021Z,99208.84
2022-11-16T00:10:25.567Z,99212.78
2022-11-16T00:12:53.916Z,99211.59
2022-11-16T00:15:22.516Z,99218.34
2022-11-16T00:17:50.896Z,99215.34
2022-11-16T00:20:19.373Z,99207.47
2022-11-16T00:22:47.374Z,99203.53
2022-11-16T00:25:15.838Z,99196.13
2022-11-16T00:27:44.684Z,99203.69
2022-11-16T00:30:13.564Z,99200.50
2022-11-16T00:32:41.928Z,99194.34
2022-11-16T00:35:10.680Z,99192.22
2022-11-16T00:37:38.780Z,99199.75
2022-11-16T00:40:07.875Z,99199.91
2022-11-16T00:42:35.917Z,99204.22
2022-11-16T00:45:04.481Z,99196.06
2022-11-16T00:47:33.072Z,99194.09
2022-11-16T00:50:01.448Z,99195.06
2022-11-16T00:52:29.989Z,99197.88
2022-11-16T00:54:58.373Z,99189.16
2022-11-16T00:57:26.844Z,99185.47
2022-11-16T00:59:55.240Z,99186.13
2022-11-16T01:02:23.910Z,99187.06
2022-11-16T01:04:52.322Z,99186.72
2022-11-16T01:07:20.803Z,99188.56
2022-11-16T01:09:49.186Z,99189.72
2022-11-16T01:12:16.390Z,99188.47
2022-11-16T01:14:47.996Z,99189.81
2022-11-16T01:17:16.728Z,99192.00
2022-11-16T01:19:45.211Z,99185.16
2022-11-16T01:22:13.608Z,99178.91
2022-11-16T01:24:42.040Z,99173.16
2022-11-16T01:27:10.497Z,99181.13
2022-11-16T02:04:42.071Z,99138.06
2022-11-16T02:08:01.558Z,99129.91
2022-11-16T02:10:55.403Z,99118.28
2022-11-16T02:14:05.259Z,99124.34
2022-11-16T02:17:21.560Z,99113.16
2022-11-16T02:20:31.215Z,99115.97
2022-11-16T02:23:29.532Z,99116.50
2022-11-16T02:26:28.587Z,99117.16
2022-11-16T02:30:00.168Z,99109.56
2022-11-16T02:33:04.022Z,99101.47
2022-11-16T02:35:51.031Z,99093.56
2022-11-16T02:38:45.777Z,99091.75
2022-11-16T02:41:19.972Z,99078.69
2022-11-16T02:44:16.690Z,99083.00
2022-11-16T02:46:48.644Z,99076.59
2022-11-16T02:49:20.345Z,99071.66
2022-11-16T02:51:49.878Z,99076.41
2022-11-16T02:54:19.442Z,99082.50
2022-11-16T02:57:05.810Z,99070.28
2022-11-16T02:59:47.567Z,99076.41
2022-11-16T03:02:52.888Z,99079.38
2022-11-16T03:05:33.039Z,99071.09
2022-11-16T03:08:24.653Z,99075.13
2022-11-16T03:11:15.682Z,99091.63
2022-11-16T03:13:45.477Z,99086.97
2022-11-16T03:16:29.052Z,99092.59
2022-11-16T03:19:00.029Z,99097.16
2022-11-16T03:21:45.364Z,99103.56
2022-11-16T03:24:13.925Z,99097.09
2022-11-16T03:27:35.079Z,99097.81
2022-11-16T03:30:12.474Z,99097.75
2022-11-16T03:33:11.817Z,99107.13
2022-11-16T03:35:57.430Z,99103.47
2022-11-16T03:38:28.684Z,99103.94
2022-11-16T03:41:02.706Z,99105.75
2022-11-16T03:43:33.038Z,99109.91
2022-11-16T03:46:02.067Z,99115.22
2022-11-16T03:48:37.929Z,99100.38
2022-11-16T03:51:07.749Z,99112.47
2022-11-16T03:53:36.193Z,99112.28
2022-11-16T03:56:05.189Z,99110.47
2022-11-16T03:58:33.880Z,99107.81
2022-11-16T04:01:04.291Z,99115.03
2022-11-16T04:03:32.886Z,99110.63
2022-11-16T04:06:19.026Z,99109.28
2022-11-16T04:09:04.797Z,99092.97
2022-11-16T04:11:50.467Z,99095.41
2022-11-16T04:14:39.469Z,99091.25
2022-11-16T04:17:35.232Z,99096.41
2022-11-16T04:20:21.295Z,99094.25
2022-11-16T04:23:11.246Z,99093.44
2022-11-16T04:25:42.291Z,99099.69
2022-11-16T04:28:16.620Z,99119.22
2022-11-16T04:31:08.370Z,99105.34
2022-11-16T04:33:54.140Z,99117.88
2022-11-16T04:36:40.329Z,99101.03
2022-11-16T04:39:09.207Z,99106.81
2022-11-16T04:41:55.690Z,99107.16
2022-11-16T04:44:29.788Z,99113.75
2022-11-16T04:47:09.467Z,99108.81
2022-11-16T04:49:39.022Z,99114.91
2022-11-16T04:52:07.431Z,99108.16
2022-11-16T04:54:35.880Z,99107.81
2022-11-16T04:57:04.317Z,99098.41
2022-11-16T04:59:32.794Z,99105.28
2022-11-16T05:02:10.090Z,99091.63
2022-11-16T05:04:44.968Z,99097.56
2022-11-16T05:07:15.605Z,99096.56
2022-11-16T05:09:46.703Z,99098.63
2022-11-16T05:12:20.792Z,99113.44
2022-11-16T05:14:49.389Z,99105.50
2022-11-16T05:17:18.620Z,99114.75
2022-11-16T05:20:04.764Z,99111.75
2022-11-16T05:22:33.691Z,99104.94
2022-11-16T05:25:02.203Z,99103.53
2022-11-16T05:27:31.833Z,99095.75
2022-11-16T05:30:00.484Z,99106.34
2022-11-16T05:32:29.408Z,99090.81
2022-11-16T05:34:57.770Z,99090.13
2022-11-16T05:37:26.866Z,99086.66
2022-11-16T05:39:56.942Z,99090.09
2022-11-16T05:42:25.434Z,99081.84
2022-11-16T05:44:54.019Z,99083.31
2022-11-16T05:47:22.436Z,99090.94
2022-11-16T05:49:51.045Z,99094.38
2022-11-16T05:52:19.452Z,99090.75
2022-11-16T05:54:48.091Z,99081.66
2022-11-16T05:57:17.551Z,99087.47
2022-11-16T05:59:46.081Z,99085.53
2022-11-16T06:02:14.692Z,99090.75
2022-11-16T06:04:43.182Z,99092.41
2022-11-16T06:07:11.644Z,99087.94
2022-11-16T06:09:40.079Z,99099.81
2022-11-16T06:12:09.293Z,99104.09
2022-11-16T06:14:37.692Z,99107.56
2022-11-16T06:17:06.400Z,99105.09
2022-11-16T06:19:36.002Z,99113.69
2022-11-16T06:22:04.427Z,99117.66
2022-11-16T06:24:34.772Z,99111.56
2022-11-16T06:27:03.199Z,99110.84
2022-11-16T06:29:31.714Z,99111.41
2022-11-16T06:32:00.123Z,99115.31
2022-11-16T06:34:28.538Z,99109.19
2022-11-16T06:36:56.966Z,99110.34
2022-11-16T06:39:25.349Z,99116.69
2022-11-16T06:41:56.314Z,99105.22
2022-11-16T06:44:24.706Z,99110.84
2022-11-16T06:46:53.150Z,99086.72
2022-11-16T06:49:21.504Z,99096.47
2022-11-16T06:51:50.028Z,99091.03
2022-11-16T06:54:18.415Z,99093.81
2022-11-16T06:56:46.923Z,99092.31
2022-11-16T06:59:15.538Z,99098.31
2022-11-16T07:01:45.188Z,99100.94
2022-11-16T07:04:13.743Z,99091.38
2022-11-16T07:06:42.142Z,99095.81
2022-11-16T07:09:11.159Z,99093.38
2022-11-16T07:11:39.909Z,99098.09
2022-11-16T07:14:09.589Z,99100.41
2022-11-16T07:16:38.562Z,99095.13
2022-11-16T07:19:07.775Z,99090.03
2022-11-16T07:21:36.975Z,99089.63
2022-11-16T07:24:05.756Z,99089.31
2022-11-16T07:26:35.851Z,99091.50
2022-11-16T07:29:04.505Z,99090.22
2022-11-16T07:31:32.961Z,99091.69
2022-11-16T07:34:01.375Z,99096.97
2022-11-16T07:36:31.885Z,99099.47
2022-11-16T07:39:00.400Z,99103.63
2022-11-16T07:41:28.882Z,99090.06
2022-11-16T07:43:57.591Z,99096.34
2022-11-16T07:49:17.324Z,99088.84
2022-11-16T07:51:46.710Z,99100.88
2022-11-16T07:54:16.253Z,99088.00
2022-11-16T07:56:44.685Z,99101.03
2022-11-16T07:59:13.733Z,99089.44
2022-11-16T08:01:42.250Z,99093.75
2022-11-16T08:04:10.713Z,99096.81
2022-11-16T08:06:39.271Z,99093.03
2022-11-16T08:09:07.710Z,99084.41
2022-11-16T08:11:36.231Z,99092.47
2022-11-16T08:14:04.746Z,99087.66
2022-11-16T08:16:34.111Z,99086.00
2022-11-16T08:19:03.477Z,99090.19
2022-11-16T08:21:31.993Z,99085.50
2022-11-16T08:24:00.527Z,99080.97
2022-11-16T08:26:29.107Z,99089.47
2022-11-16T08:28:57.794Z,99085.97
2022-11-16T08:31:33.619Z,99086.75
2022-11-16T08:34:02.564Z,99077.09
2022-11-16T08:36:31.066Z,99084.91
2022-11-16T08:38:59.522Z,99078.44
2022-11-16T08:41:28.040Z,99082.97
2022-11-16T08:43:57.139Z,99077.56
2022-11-16T08:46:25.642Z,99081.53
2022-11-16T08:48:58.021Z,99082.59
2022-11-16T08:51:29.787Z,99077.69
2022-11-16T08:54:00.040Z,99084.81
2022-11-16T08:56:30.155Z,99082.47
2022-11-16T08:58:59.528Z,99078.00
2022-11-16T09:01:31.403Z,99085.00
2022-11-16T09:04:00.406Z,99084.03
2022-11-16T09:06:29.484Z,99078.38
2022-11-16T09:08:59.631Z,99078.28
2022-11-16T09:11:28.492Z,99084.13
2022-11-16T09:13:57.403Z,99080.94
2022-11-16T09:16:27.876Z,99073.28
2022-11-16T09:18:56.815Z,99072.72
2022-11-16T09:21:30.232Z,99069.63
2022-11-16T09:23:59.316Z,99068.63
2022-11-16T09:26:27.789Z,99063.50
2022-11-16T09:29:03.310Z,99067.53
2022-11-16T09:31:37.212Z,99071.53
2022-11-16T09:34:06.347Z,99064.78
2022-11-16T09:36:35.183Z,99072.09
2022-11-16T09:42:44.333Z,99070.34
2022-11-16T09:45:40.229Z,99065.44
2022-11-16T09:48:13.705Z,99061.03
2022-11-16T09:51:08.200Z,99055.75
2022-11-16T09:54:03.683Z,99065.16
2022-11-16T09:56:36.890Z,99066.34
2022-11-16T09:59:17.975Z,99066.59
2022-11-16T10:02:13.949Z,99059.56
2022-11-16T10:04:58.265Z,99068.97
2022-11-16T10:07:35.108Z,99059.09
2022-11-16T10:10:03.557Z,99068.72
2022-11-16T10:12:54.769Z,99077.28
2022-11-16T10:15:23.993Z,99072.44
2022-11-16T10:18:38.557Z,99064.94
2022-11-16T10:21:22.665Z,99062.91
2022-11-16T10:24:14.360Z,99066.16
2022-11-16T10:26:48.374Z,99069.72
2022-11-16T10:29:41.196Z,99073.59
2022-11-16T10:32:18.819Z,99072.97
2022-11-16T10:34:53.581Z,99084.78
2022-11-16T10:37:23.605Z,99083.69
2022-11-16T10:39:54.297Z,99079.56
2022-11-16T10:42:54.908Z,99074.56
2022-11-16T10:45:45.989Z,99073.06
2022-11-16T10:48:42.862Z,99080.22
2022-11-16T10:51:11.948Z,99069.44
2022-11-16T10:53:44.319Z,99069.50
2022-11-16T10:56:30.155Z,99067.47
2022-11-16T10:59:03.299Z,99066.84
2022-11-16T11:01:53.297Z,99069.78
2022-11-16T11:04:25.574Z,99061.47
2022-11-16T11:06:59.923Z,99054.34
2022-11-16T11:09:33.864Z,99060.66
2022-11-16T11:12:32.158Z,99052.16
2022-11-16T11:15:04.704Z,99052.53
2022-11-16T11:17:35.486Z,99046.19
2022-11-16T11:20:12.700Z,99047.38
2022-11-16T11:22:58.093Z,99041.19
2022-11-16T11:25:41.242Z,99043.53
2022-11-16T11:28:32.911Z,99036.09
2022-11-16T11:31:13.759Z,99043.03
2022-11-16T11:34:28.859Z,99033.06
2022-11-16T11:37:02.500Z,99032.69
2022-11-16T11:39:37.694Z,99034.72
2022-11-16T11:42:15.062Z,99039.81
2022-11-16T11:45:07.679Z,99042.47
2022-11-16T11:48:04.004Z,99036.63
2022-11-16T11:50:37.824Z,99032.22
2022-11-16T11:53:13.167Z,99024.03
2022-11-16T11:55:41.703Z,99028.28
2022-11-16T11:58:17.845Z,99026.75
2022-11-16T12:01:36.670Z,99022.38
2022-11-16T12:05:00.283Z,99024.66
2022-11-16T12:07:55.384Z,99018.44
2022-11-16T12:10:55.998Z,99026.56
2022-11-16T12:14:05.345Z,99024.47
2022-11-16T12:17:24.691Z,99021.00
2022-11-16T12:20:20.623Z,99018.97
2022-11-16T12:23:30.871Z,99016.91
2022-11-16T12:26:22.824Z,99020.78
2022-11-16T12:29:21.937Z,99012.94
2022-11-16T12:32:19.025Z,99025.19
2022-11-16T12:35:21.822Z,99015.28
2022-11-16T12:38:26.431Z,99023.59
2022-11-16T12:41:44.910Z,99012.38
2022-11-16T12:44:20.972Z,99020.72
2022-11-16T12:47:51.846Z,99006.69
2022-11-16T12:50:46.602Z,99017.03
2022-11-16T12:53:31.513Z,99024.44
2022-11-16T12:56:48.839Z,99021.31
2022-11-16T13:00:03.005Z,99022.06
2022-11-16T13:02:59.063Z,99028.59
2022-11-16T13:05:51.273Z,99022.00
2022-11-16T13:08:41.423Z,99024.47
2022-11-16T13:11:19.304Z,99022.06
2022-11-16T13:13:53.379Z,99015.25
2022-11-16T13:16:24.279Z,99012.03
2022-11-16T13:18:53.678Z,99012.03
2022-11-16T13:22:03.767Z,99013.44
2022-11-16T13:24:55.486Z,99013.34
2022-11-16T13:27:45.058Z,99009.66
2022-11-16T13:30:26.346Z,99016.00
2022-11-16T13:33:33.278Z,99021.00
2022-11-16T13:36:47.760Z,99012.59
2022-11-16T13:39:22.940Z,99004.13
2022-11-16T13:42:13.022Z,99010.59
2022-11-16T13:44:41.363Z,99004.84
2022-11-16T13:47:30.424Z,98999.34
2022-11-16T13:50:05.554Z,99002.13
2022-11-16T13:55:47.478Z,99001.19
2022-11-16T13:58:22.841Z,99001.19
2022-11-16T14:01:02.231Z,98998.72
2022-11-16T14:03:40.111Z,98998.66
2022-11-16T14:06:30.965Z,98996.38
2022-11-16T14:09:01.755Z,98997.56
2022-11-16T14:11:34.741Z,98997.09
2022-11-16T14:14:11.322Z,98994.91
2022-11-16T14:16:47.188Z,98997.47
2022-11-16T14:19:47.620Z,98996.00
2022-11-16T14:22:46.710Z,98992.53
2022-11-16T14:25:31.905Z,98982.31
2022-11-16T14:28:24.851Z,98988.97
2022-11-16T14:31:30.760Z,98991.16
2022-11-16T14:34:01.619Z,98993.00
2022-11-16T14:36:43.475Z,98984.88
2022-11-16T14:39:37.232Z,98977.94
2022-11-16T14:42:16.340Z,98972.63
2022-11-16T14:44:45.131Z,98973.72
2022-11-16T14:47:30.478Z,98970.53
2022-11-16T14:49:58.664Z,98966.59
2022-11-16T14:52:38.139Z,98965.97
2022-11-16T14:55:09.803Z,98969.78
2022-11-16T14:57:38.283Z,98964.47
2022-11-16T15:00:19.014Z,98966.59
2022-11-16T15:02:51.816Z,98968.78
2022-11-16T15:05:31.189Z,98965.97
2022-11-16T15:08:01.324Z,98966.13
2022-11-16T15:10:30.619Z,98972.50
2022-11-16T15:12:59.375Z,98979.00
2022-11-16T15:15:31.673Z,98971.72
2022-11-16T15:18:12.990Z,98969.25
2022-11-16T15:20:51.782Z,98967.69
2022-11-16T15:23:23.871Z,98961.13
2022-11-16T15:26:00.321Z,98959.47
2022-11-16T15:28:31.682Z,98969.25
2022-11-16T15:31:04.365Z,98970.25
2022-11-16T15:33:40.678Z,98969.06
2022-11-16T15:36:41.700Z,98957.91
2022-11-16T15:39:22.120Z,98967.31
2022-11-16T15:41:51.526Z,98962.22
2022-11-16T15:44:23.674Z,98967.69
2022-11-16T15:46:57.285Z,98975.53
2022-11-16T15:49:36.583Z,98969.25
2022-11-16T15:52:05.140Z,98961.50
2022-11-16T15:54:56.577Z,98980.47
2022-11-16T15:57:26.057Z,98970.91
2022-11-16T15:59:57.467Z,98972.63
2022-11-16T16:02:29.391Z,98980.09
2022-11-16T16:04:57.560Z,98968.41
2022-11-16T16:07:43.938Z,98963.31
2022-11-16T16:10:21.046Z,98959.03
2022-11-16T16:13:01.286Z,98965.16
2022-11-16T16:15:34.047Z,98972.63
2022-11-16T16:18:04.300Z,98970.44
2022-11-16T16:20:34.885Z,98970.34
2022-11-16T16:23:13.856Z,98961.50
2022-11-16T16:25:47.477Z,98960.22
2022-11-16T16:28:18.316Z,98963.69
2022-11-16T16:30:46.355Z,98965.50
2022-11-16T16:33:21.977Z,98962.66
2022-11-16T16:35:50.998Z,98964.06
2022-11-16T16:38:19.435Z,98966.13
2022-11-16T16:40:48.094Z,98963.59
2022-11-16T16:43:16.656Z,98968.69
2022-11-16T16:45:45.542Z,98963.97
2022-11-16T16:48:14.173Z,98969.06
2022-11-16T16:50:42.368Z,98971.34
2022-11-16T16:53:14.354Z,98978.81
2022-11-16T16:55:47.589Z,98976.72
2022-11-16T16:58:16.906Z,98977.88
2022-11-16T17:00:45.843Z,98981.00
2022-11-16T17:03:14.735Z,98975.19
2022-11-16T17:05:42.920Z,98983.38
2022-11-16T17:08:11.097Z,98982.03
2022-11-16T17:10:39.860Z,98979.19
2022-11-16T17:13:07.999Z,98974.09
2022-11-16T17:15:36.567Z,98974.34
2022-11-16T17:18:05.178Z,98977.72
2022-11-16T17:20:34.229Z,98970.97
2022-11-16T17:23:03.036Z,98974.53
2022-11-16T17:25:32.995Z,98975.06
2022-11-16T17:28:01.491Z,98977.25
2022-11-16T17:30:29.602Z,98974.25
2022-11-16T17:32:58.052Z,98964.84
2022-11-16T17:35:26.247Z,98978.56
2022-11-16T17:37:54.685Z,98980.72
2022-11-16T17:40:23.231Z,98973.41
2022-11-16T17:42:51.997Z,98977.72
2022-11-16T17:45:20.156Z,98963.66
2022-11-16T17:47:48.577Z,98959.91
2022-11-16T17:50:16.966Z,98966.16
2022-11-16T17:52:44.976Z,98974.81
2022-11-16T17:55:12.993Z,98972.78
2022-11-16T17:57:41.208Z,98972.97
2022-11-16T18:00:10.189Z,98984.47
2022-11-16T18:02:38.291Z,98981.47
2022-11-16T18:05:06.993Z,98982.44
2022-11-16T18:07:36.587Z,98988.09
2022-11-16T18:10:04.977Z,98982.34
2022-11-16T18:12:33.516Z,98985.81
2022-11-16T18:15:27.074Z,98981.16
2022-11-16T18:17:49.681Z,98993.41
2022-11-16T18:20:18.301Z,98985.97
2022-11-16T18:22:46.727Z,98990.63
2022-11-16T18:25:15.432Z,98986.19
2022-11-16T18:27:43.854Z,98986.06
2022-11-16T18:30:12.409Z,98986.69
2022-11-16T18:32:40.430Z,98981.41
2022-11-16T18:35:09.995Z,98984.88
2022-11-16T18:37:38.107Z,98990.53
2022-11-16T18:40:07.126Z,98987.41
2022-11-16T18:42:35.937Z,98980.22
2022-11-16T18:45:04.338Z,98989.19
2022-11-16T18:47:32.819Z,98983.44
2022-11-16T18:50:01.052Z,98975.66
2022-11-16T18:52:29.552Z,98976.47
2022-11-16T18:54:57.703Z,98962.06
2022-11-16T18:57:26.278Z,98964.91
2022-11-16T18:59:54.692Z,98964.72
2022-11-16T19:02:22.746Z,98966.09
2022-11-16T19:04:51.377Z,98959.31
2022-11-16T19:07:19.497Z,98960.97
2022-11-16T19:09:47.611Z,98951.00
2022-11-16T19:12:16.204Z,98957.69
2022-11-16T19:14:44.505Z,98951.84
2022-11-16T19:17:12.929Z,98954.22
2022-11-16T19:19:41.405Z,98952.88
2022-11-16T19:22:09.534Z,98945.72
2022-11-16T19:24:38.673Z,98953.66
2022-11-16T19:27:07.218Z,98946.69
2022-11-16T19:29:36.164Z,98940.94
2022-11-16T19:32:04.725Z,98948.50
2022-11-16T19:34:33.619Z,98947.06
2022-11-16T19:37:02.091Z,98950.72
2022-11-16T19:39:30.137Z,98944.97
2022-11-16T19:41:58.633Z,98954.50
2022-11-16T19:44:26.957Z,98956.59
2022-11-16T19:46:56.821Z,98948.28
2022-11-16T19:49:25.320Z,98951.97
2022-11-16T19:51:53.787Z,98961.06
2022-11-16T19:54:22.455Z,98960.25
2022-11-16T19:56:54.893Z,98976.94
2022-11-16T19:59:23.730Z,98972.09
2022-11-16T20:01:51.963Z,98969.00
2022-11-16T20:04:20.054Z,98964.88
2022-11-16T20:06:48.627Z,98961.25
2022-11-16T20:09:18.042Z,98947.97
2022-11-16T20:11:46.525Z,98946.59
2022-11-16T20:14:15.268Z,98949.53
2022-11-16T20:16:46.825Z,98942.22
2022-11-16T20:19:15.785Z,98949.78
2022-11-16T20:21:44.681Z,98942.25
2022-11-16T20:24:16.004Z,98944.31
2022-11-16T20:26:48.050Z,98954.50
2022-11-16T20:29:19.542Z,98944.75
2022-11-16T20:31:48.093Z,98946.09
2022-11-16T20:34:20.339Z,98951.91
2022-11-16T20:36:50.910Z,98949.44
2022-11-16T20:39:21.340Z,98956.34
2022-11-16T20:41:49.855Z,98946.13
2022-11-16T20:44:22.273Z,98951.72
2022-11-16T20:46:52.524Z,98950.50
2022-11-16T20:49:21.362Z,98952.84
2022-11-16T20:51:51.129Z,98956.47
2022-11-16T20:54:19.567Z,98952.00
2022-11-16T20:56:49.662Z,98947.19
2022-11-16T20:59:18.330Z,98955.13
2022-11-16T21:01:48.621Z,98957.88
2022-11-16T21:04:17.510Z,98959.13
2022-11-16T21:06:46.014Z,98962.53
2022-11-16T21:09:22.152Z,98970.94
2022-11-16T21:12:08.109Z,98970.63
2022-11-16T21:14:36.515Z,98967.16
2022-11-16T21:17:05.066Z,98971.34
2022-11-16T21:19:33.567Z,98974.09
2022-11-16T21:22:02.101Z,98970.41
2022-11-16T21:24:32.106Z,98974.75
2022-11-16T21:27:00.622Z,98970.47
2022-11-16T21:29:29.058Z,98974.06
2022-11-16T21:31:57.500Z,98970.16
2022-11-16T21:34:27.875Z,98976.03
2022-11-16T21:36:56.402Z,98967.63
2022-11-16T21:39:25.252Z,98966.53
2022-11-16T21:41:53.695Z,98967.81
2022-11-16T21:44:22.166Z,98969.13
2022-11-16T21:46:50.679Z,98974.53
2022-11-16T21:49:19.143Z,98981.16
2022-11-16T21:51:47.623Z,98982.22
2022-11-16T21:54:16.402Z,98986.44
2022-11-16T21:56:44.813Z,98969.41
2022-11-16T21:59:13.220Z,98976.03
2022-11-16T22:01:55.582Z,98972.22
2022-11-16T22:04:41.372Z,98969.06
2022-11-16T22:07:36.845Z,98969.94
2022-11-16T22:10:13.619Z,98965.31
2022-11-16T22:12:42.172Z,98968.69
2022-11-16T22:15:10.882Z,98961.19
2022-11-16T22:17:44.683Z,98960.97
2022-11-16T22:20:13.252Z,98952.91
2022-11-16T22:22:41.788Z,98952.59
2022-11-16T22:25:10.694Z,98945.84
2022-11-16T22:28:05.645Z,98958.56
2022-11-16T22:30:27.714Z,98962.31
2022-11-16T22:32:56.395Z,98964.63
2022-11-16T22:35:25.003Z,98966.53
2022-11-16T22:37:53.613Z,98964.53
2022-11-16T22:40:22.028Z,98955.31
2022-11-16T22:42:50.475Z,98955.31
2022-11-16T22:45:18.992Z,98959.78
2022-11-16T22:47:49.691Z,98959.00
2022-11-16T22:50:24.090Z,98960.28
2022-11-16T22:52:52.625Z,98973.50
2022-11-16T22:55:21.264Z,98984.28
2022-11-16T22:57:49.812Z,98970.22
2022-11-16T23:00:18.929Z,98976.81
2022-11-16T23:02:47.576Z,98979.75
2022-11-16T23:05:16.079Z,98978.63
2022-11-16T23:07:44.863Z,98966.91
2022-11-16T23:10:13.376Z,98979.81
2022-11-16T23:12:59.215Z,98974.53
2022-11-16T23:15:45.184Z,98962.31
2022-11-16T23:18:13.621Z,98965.97
2022-11-16T23:21:07.867Z,98958.34
2022-11-16T23:23:53.711Z,98948.81
2022-11-16T23:26:42.460Z,98942.34
2022-11-16T23:29:11.970Z,98943.69
2022-11-16T23:31:40.779Z,98947.16
2022-11-16T23:34:09.198Z,98939.41
2022-11-16T23:36:37.712Z,98929.66
2022-11-16T23:39:06.374Z,98922.91
2022-11-16T23:41:52.264Z,98921.22
2022-11-16T23:44:20.662Z,98911.38
2022-11-16T23:46:49.060Z,98906.88
2022-11-16T23:49:17.542Z,98910.63
2022-11-16T23:51:45.929Z,98905.31
2022-11-16T23:54:14.400Z,98898.75
2022-11-16T23:56:42.827Z,98882.41
2022-11-16T23:59:11.390Z,98896.91
